Time;durP1;ratioP1;P1;durP2;ratioP2;P2;SDS_P1;SDS_P2;PMS_P1;PMS_P2;Temp;Humidity;BMP_temperature;BMP_pressure;BME280_temperature;BME280_humidity;BME280_pressure;Samples;Min_cycle;Max_cycle;Signal;HPM_P1;HPM_P2
2022/07/12 00:00:59;;;;;;;4.47;4.07;;;;;;;;;;5014824;28;20407;-66
2022/07/12 00:03:25;;;;;;;3.70;3.60;;;;;;;;;;5014565;28;20424;-65
2022/07/12 00:05:54;;;;;;;4.00;3.60;;;;;;;;;;5014751;28;20401;-66
2022/07/12 00:08:20;;;;;;;8.30;4.10;;;;;;;;;;4997140;28;20501;-65
2022/07/12 00:10:46;;;;;;;5.20;5.00;;;;;;;;;;5014540;28;20477;-64
2022/07/12 00:13:12;;;;;;;5.70;4.17;;;;;;;;;;5013815;28;20420;-65
2022/07/12 00:15:38;;;;;;;4.70;4.30;;;;;;;;;;5014453;28;20450;-66
2022/07/12 00:18:04;;;;;;;4.50;4.30;;;;;;;;;;5014526;28;20425;-65
2022/07/12 00:20:30;;;;;;;4.00;3.90;;;;;;;;;;5014497;28;20415;-66
2022/07/12 00:22:56;;;;;;;4.57;4.13;;;;;;;;;;5014609;28;20391;-65
2022/07/12 00:25:22;;;;;;;3.93;3.63;;;;;;;;;;5014386;28;20571;-65
2022/07/12 00:27:49;;;;;;;8.77;4.13;;;;;;;;;;5014344;28;20418;-65
2022/07/12 00:30:15;;;;;;;5.20;4.80;;;;;;;;;;5014541;28;20471;-65
2022/07/12 00:32:41;;;;;;;4.83;4.60;;;;;;;;;;5014323;28;20978;-65
2022/07/12 00:35:08;;;;;;;5.00;4.60;;;;;;;;;;5014440;28;20520;-65
2022/07/12 00:37:34;;;;;;;7.37;4.60;;;;;;;;;;5014150;28;20495;-65
2022/07/12 00:40:00;;;;;;;4.73;4.53;;;;;;;;;;5014132;28;20446;-65
2022/07/12 00:42:26;;;;;;;4.33;4.13;;;;;;;;;;5014077;28;20428;-66
2022/07/12 00:44:53;;;;;;;4.83;4.43;;;;;;;;;;5014070;28;20553;-66
2022/07/12 00:47:37;;;;;;;11.13;5.40;;;;;;;;;;5014258;28;20778;-65
2022/07/12 00:50:07;;;;;;;4.40;4.20;;;;;;;;;;5013928;28;20549;-66
2022/07/12 00:52:33;;;;;;;4.17;4.07;;;;;;;;;;4996315;28;20424;-66
2022/07/12 00:54:59;;;;;;;4.97;4.00;;;;;;;;;;5013914;28;20403;-65
2022/07/12 00:57:25;;;;;;;4.80;4.57;;;;;;;;;;5013785;28;20440;-65
2022/07/12 01:00:00;;;;;;;4.70;4.50;;;;;;;;;;5013888;28;20415;-65
2022/07/12 01:02:26;;;;;;;4.87;4.77;;;;;;;;;;5013843;28;20455;-64
2022/07/12 01:04:55;;;;;;;4.63;4.43;;;;;;;;;;5013597;28;20521;-65
2022/07/12 01:07:23;;;;;;;4.20;4.03;;;;;;;;;;4996099;28;20423;-65
2022/07/12 01:09:49;;;;;;;4.70;4.50;;;;;;;;;;5013744;28;20499;-65
2022/07/12 01:12:15;;;;;;;4.53;4.43;;;;;;;;;;5013543;28;20525;-64
2022/07/12 01:14:41;;;;;;;4.63;4.43;;;;;;;;;;5013723;28;20418;-65
2022/07/12 01:17:07;;;;;;;5.20;4.80;;;;;;;;;;5013827;28;20510;-65
2022/07/12 01:19:34;;;;;;;5.70;5.33;;;;;;;;;;5013621;28;20511;-65
2022/07/12 01:22:02;;;;;;;4.50;4.40;;;;;;;;;;5013614;28;20414;-65
2022/07/12 01:24:28;;;;;;;4.67;4.47;;;;;;;;;;5013645;28;20408;-65
2022/07/12 01:26:55;;;;;;;4.60;4.17;;;;;;;;;;5017854;28;20438;-65
2022/07/12 01:29:21;;;;;;;4.67;4.53;;;;;;;;;;5017625;28;20771;-65
2022/07/12 01:31:47;;;;;;;5.73;5.30;;;;;;;;;;5017805;28;20880;-65
2022/07/12 01:34:13;;;;;;;5.27;4.90;;;;;;;;;;5017574;28;20494;-66
2022/07/12 01:36:40;;;;;;;7.50;5.27;;;;;;;;;;5017509;28;20460;-66
2022/07/12 01:39:06;;;;;;;5.43;4.97;;;;;;;;;;5017643;28;20548;-66
2022/07/12 01:41:32;;;;;;;5.00;4.70;;;;;;;;;;5017388;28;20495;-66
2022/07/12 01:43:58;;;;;;;5.83;5.40;;;;;;;;;;5017304;28;20504;-66
2022/07/12 01:46:24;;;;;;;8.83;4.93;;;;;;;;;;5017789;28;20754;-65
2022/07/12 01:48:50;;;;;;;5.50;5.10;;;;;;;;;;5017240;28;20412;-65
2022/07/12 01:51:16;;;;;;;6.00;5.50;;;;;;;;;;5017179;28;20478;-65
2022/07/12 01:53:42;;;;;;;9.27;5.23;;;;;;;;;;5017318;28;20774;-65
2022/07/12 01:56:09;;;;;;;7.23;5.30;;;;;;;;;;5017063;28;20414;-65
2022/07/12 01:58:35;;;;;;;6.30;5.60;;;;;;;;;;5017395;28;20447;-65
2022/07/12 02:01:01;;;;;;;5.27;4.80;;;;;;;;;;5017021;28;20952;-66
2022/07/12 02:03:27;;;;;;;5.60;5.20;;;;;;;;;;5017211;28;20947;-65
2022/07/12 02:08:31;;;;;;;5.27;4.87;;;;;;;;;;5017181;28;20399;-65
2022/07/12 02:10:57;;;;;;;5.53;5.23;;;;;;;;;;5016805;28;20474;-65
2022/07/12 02:13:23;;;;;;;7.80;5.00;;;;;;;;;;5016810;28;20418;-65
2022/07/12 02:15:49;;;;;;;5.30;5.10;;;;;;;;;;5016926;28;20404;-65
2022/07/12 02:18:15;;;;;;;5.70;5.30;;;;;;;;;;5016769;28;20905;-65
2022/07/12 02:20:41;;;;;;;5.50;5.30;;;;;;;;;;5016831;28;20403;-65
2022/07/12 02:23:07;;;;;;;7.20;5.47;;;;;;;;;;5016754;28;20485;-65
2022/07/12 02:25:33;;;;;;;5.50;5.30;;;;;;;;;;5016603;28;20814;-65
2022/07/12 02:27:59;;;;;;;5.63;5.23;;;;;;;;;;5016507;28;20505;-65
2022/07/12 02:30:25;;;;;;;5.53;5.30;;;;;;;;;;5016543;28;20548;-64
2022/07/12 02:32:51;;;;;;;6.20;5.70;;;;;;;;;;5016514;28;20420;-65
2022/07/12 02:35:17;;;;;;;6.07;5.57;;;;;;;;;;5016470;28;20418;-66
2022/07/12 02:37:43;;;;;;;6.80;5.97;;;;;;;;;;4997996;28;20870;-65
2022/07/12 02:42:54;;;;;;;6.17;5.87;;;;;;;;;;5016256;28;20832;-65
2022/07/12 02:45:20;;;;;;;5.80;5.30;;;;;;;;;;5016330;28;20413;-65
2022/07/12 02:47:46;;;;;;;5.33;4.87;;;;;;;;;;5016097;28;20492;-65
2022/07/12 02:50:12;;;;;;;5.90;5.70;;;;;;;;;;5016068;28;20523;-65
2022/07/12 02:52:38;;;;;;;5.30;5.10;;;;;;;;;;5016024;28;20446;-65
2022/07/12 02:55:04;;;;;;;6.13;5.73;;;;;;;;;;5016258;28;20395;-65
2022/07/12 02:57:30;;;;;;;5.30;5.10;;;;;;;;;;5015905;28;20417;-64
2022/07/12 02:59:56;;;;;;;5.80;5.40;;;;;;;;;;5015965;28;20756;-64
2022/07/12 03:02:22;;;;;;;5.57;5.37;;;;;;;;;;5015810;28;20414;-64
2022/07/12 03:04:48;;;;;;;6.20;5.90;;;;;;;;;;5015727;28;20958;-64
2022/07/12 03:07:14;;;;;;;7.03;6.10;;;;;;;;;;5016067;28;20406;-65
2022/07/12 03:09:40;;;;;;;6.23;5.83;;;;;;;;;;5015663;28;20885;-65
2022/07/12 03:12:07;;;;;;;8.33;5.83;;;;;;;;;;5015661;28;20429;-65
2022/07/12 03:14:33;;;;;;;6.43;5.67;;;;;;;;;;5015671;28;20406;-65
2022/07/12 03:16:59;;;;;;;5.40;5.20;;;;;;;;;;5015611;28;20411;-64
2022/07/12 03:19:25;;;;;;;6.30;5.70;;;;;;;;;;5015752;28;20402;-65
2022/07/12 03:21:50;;;;;;;5.90;5.63;;;;;;;;;;5015580;28;20988;-65
2022/07/12 03:24:16;;;;;;;7.17;6.10;;;;;;;;;;5015458;28;20453;-66
2022/07/12 03:26:42;;;;;;;6.27;5.67;;;;;;;;;;5015398;28;20505;-65
2022/07/12 03:29:08;;;;;;;6.60;5.90;;;;;;;;;;4997926;28;20480;-65
2022/07/12 03:31:34;;;;;;;6.20;5.80;;;;;;;;;;5015286;28;21066;-65
2022/07/12 03:34:00;;;;;;;8.23;5.97;;;;;;;;;;5015705;28;20409;-65
2022/07/12 03:36:26;;;;;;;6.90;6.30;;;;;;;;;;5015352;28;20422;-64
2022/07/12 03:38:52;;;;;;;6.13;5.80;;;;;;;;;;4997764;28;20425;-66
2022/07/12 03:41:18;;;;;;;7.30;6.43;;;;;;;;;;5015438;28;20909;-65
2022/07/12 03:43:44;;;;;;;6.37;5.97;;;;;;;;;;5015126;28;20431;-65
2022/07/12 03:46:10;;;;;;;8.37;6.77;;;;;;;;;;5015061;28;20786;-65
2022/07/12 03:48:36;;;;;;;9.63;7.00;;;;;;;;;;5015012;28;20413;-64
2022/07/12 03:51:02;;;;;;;6.77;6.20;;;;;;;;;;5014899;28;20479;-65
2022/07/12 03:53:28;;;;;;;6.90;6.23;;;;;;;;;;5014964;28;20872;-65
2022/07/12 03:55:54;;;;;;;14.27;9.73;;;;;;;;;;5014916;28;20406;-65
2022/07/12 03:58:20;;;;;;;8.17;7.60;;;;;;;;;;5014811;28;20475;-65
2022/07/12 04:00:46;;;;;;;6.13;5.63;;;;;;;;;;5015094;28;20409;-65
2022/07/12 04:03:12;;;;;;;7.00;6.50;;;;;;;;;;5014561;28;20405;-65
2022/07/12 04:05:38;;;;;;;7.87;7.37;;;;;;;;;;5014721;28;20772;-64
2022/07/12 04:08:05;;;;;;;7.00;6.17;;;;;;;;;;5014639;28;20869;-65
2022/07/12 04:10:31;;;;;;;7.17;6.37;;;;;;;;;;5014567;28;20461;-64
2022/07/12 04:12:57;;;;;;;7.70;6.00;;;;;;;;;;5014450;28;20423;-65
2022/07/12 04:15:23;;;;;;;5.40;5.20;;;;;;;;;;5014845;28;20451;-64
2022/07/12 04:17:48;;;;;;;6.63;6.23;;;;;;;;;;5014513;28;20899;-65
2022/07/12 04:20:14;;;;;;;7.53;7.00;;;;;;;;;;5014496;28;20409;-65
2022/07/12 04:22:40;;;;;;;15.77;14.07;;;;;;;;;;5014490;28;20405;-65
2022/07/12 04:25:07;;;;;;;27.93;21.10;;;;;;;;;;5014579;28;20497;-65
2022/07/12 04:27:33;;;;;;;21.07;18.17;;;;;;;;;;5014504;28;20809;-65
2022/07/12 04:29:59;;;;;;;12.83;11.37;;;;;;;;;;4996642;28;20528;-65
2022/07/12 04:32:25;;;;;;;8.37;7.57;;;;;;;;;;5014276;28;20508;-65
2022/07/12 04:34:51;;;;;;;10.70;7.90;;;;;;;;;;5014271;28;20468;-65
2022/07/12 04:37:18;;;;;;;6.60;6.20;;;;;;;;;;5014200;28;20425;-65
2022/07/12 04:39:43;;;;;;;6.20;5.80;;;;;;;;;;5014180;28;20410;-65
2022/07/12 04:42:09;;;;;;;5.70;5.50;;;;;;;;;;5014287;28;20507;-64
2022/07/12 04:44:35;;;;;;;6.23;5.83;;;;;;;;;;5014164;28;20412;-65
2022/07/12 04:47:01;;;;;;;6.27;5.70;;;;;;;;;;5014127;28;20416;-64
2022/07/12 04:49:27;;;;;;;5.77;5.20;;;;;;;;;;5013994;28;20411;-65
2022/07/12 04:51:53;;;;;;;5.20;5.00;;;;;;;;;;5013818;28;20461;-64
2022/07/12 04:54:19;;;;;;;6.07;5.67;;;;;;;;;;5013968;28;20403;-65
2022/07/12 04:56:45;;;;;;;5.77;5.43;;;;;;;;;;5014081;28;20433;-65
2022/07/12 04:59:11;;;;;;;6.17;5.67;;;;;;;;;;5013698;28;20418;-65
2022/07/12 05:01:37;;;;;;;6.27;5.97;;;;;;;;;;5013977;28;20412;-65
2022/07/12 05:04:04;;;;;;;6.00;5.60;;;;;;;;;;5013732;28;20884;-65
2022/07/12 05:06:30;;;;;;;6.43;5.87;;;;;;;;;;5013816;28;20445;-65
2022/07/12 05:08:56;;;;;;;6.93;5.83;;;;;;;;;;5014013;28;20401;-65
2022/07/12 05:11:22;;;;;;;6.73;6.43;;;;;;;;;;5013754;28;20951;-65
2022/07/12 05:13:48;;;;;;;6.10;5.60;;;;;;;;;;5013675;28;20416;-64
2022/07/12 05:16:14;;;;;;;7.50;7.00;;;;;;;;;;4996310;28;20420;-65
2022/07/12 05:18:40;;;;;;;6.50;6.20;;;;;;;;;;5013666;28;20415;-64
2022/07/12 05:21:06;;;;;;;10.13;5.90;;;;;;;;;;4996047;28;20556;-65
2022/07/12 05:23:32;;;;;;;6.97;6.30;;;;;;;;;;5013593;28;20441;-65
2022/07/12 05:25:58;;;;;;;7.00;6.33;;;;;;;;;;5013471;28;20831;-65
2022/07/12 05:28:27;;;;;;;5.87;5.60;;;;;;;;;;5013475;28;20424;-64
2022/07/12 05:30:53;;;;;;;9.93;5.90;;;;;;;;;;5013241;28;20493;-65
2022/07/12 05:33:19;;;;;;;10.40;5.83;;;;;;;;;;5013438;28;20413;-65
2022/07/12 05:35:45;;;;;;;6.00;5.60;;;;;;;;;;4995833;28;20414;-65
2022/07/12 05:38:11;;;;;;;6.63;6.23;;;;;;;;;;5013480;28;20452;-65
2022/07/12 05:40:37;;;;;;;7.00;6.43;;;;;;;;;;5013387;28;20437;-65
2022/07/12 05:43:03;;;;;;;5.47;5.20;;;;;;;;;;5013335;28;20914;-65
2022/07/12 05:45:29;;;;;;;6.10;5.67;;;;;;;;;;5013327;28;20463;-65
2022/07/12 05:47:55;;;;;;;6.20;5.63;;;;;;;;;;5013411;28;20905;-64
2022/07/12 05:50:24;;;;;;;11.90;6.70;;;;;;;;;;5013311;28;21045;-64
2022/07/12 05:55:34;;;;;;;5.73;5.53;;;;;;;;;;5013588;28;20847;-65
2022/07/12 05:58:00;;;;;;;6.90;6.13;;;;;;;;;;5013159;28;20449;-65
2022/07/12 06:00:26;;;;;;;5.83;5.37;;;;;;;;;;5013112;28;20781;-67
2022/07/12 06:02:52;;;;;;;5.87;5.67;;;;;;;;;;5013163;28;20446;-66
2022/07/12 06:05:18;;;;;;;5.73;5.43;;;;;;;;;;5012958;28;20466;-64
2022/07/12 06:07:44;;;;;;;5.63;5.33;;;;;;;;;;5013071;28;20787;-65
2022/07/12 06:10:10;;;;;;;5.27;5.07;;;;;;;;;;5013038;28;20462;-65
2022/07/12 06:12:37;;;;;;;5.57;5.37;;;;;;;;;;5014881;28;20570;-65
2022/07/12 06:15:03;;;;;;;7.40;5.73;;;;;;;;;;5016808;28;20399;-65
2022/07/12 06:17:29;;;;;;;9.20;5.87;;;;;;;;;;5016899;28;20424;-65
2022/07/12 06:19:55;;;;;;;5.40;5.00;;;;;;;;;;5016745;28;20411;-64
2022/07/12 06:22:21;;;;;;;9.87;5.40;;;;;;;;;;4999088;28;20446;-65
2022/07/12 06:24:47;;;;;;;4.93;4.73;;;;;;;;;;5016650;28;20457;-65
2022/07/12 06:27:13;;;;;;;6.13;5.73;;;;;;;;;;5016666;28;20899;-65
2022/07/12 06:29:39;;;;;;;5.30;5.00;;;;;;;;;;5016621;28;20410;-65
2022/07/12 06:32:05;;;;;;;6.03;5.53;;;;;;;;;;5016402;28;20841;-64
2022/07/12 06:34:31;;;;;;;7.03;5.33;;;;;;;;;;5016752;28;20491;-63
2022/07/12 06:36:57;;;;;;;5.13;4.83;;;;;;;;;;5016423;28;20859;-64
2022/07/12 06:39:23;;;;;;;4.93;4.77;;;;;;;;;;5016355;28;20416;-64
2022/07/12 06:41:49;;;;;;;5.53;4.73;;;;;;;;;;5016122;28;20426;-64
2022/07/12 06:44:15;;;;;;;4.40;4.20;;;;;;;;;;4998731;28;20516;-65
2022/07/12 06:46:41;;;;;;;4.87;4.50;;;;;;;;;;5016197;28;20417;-64
2022/07/12 06:49:07;;;;;;;5.10;4.70;;;;;;;;;;5016118;28;20419;-64
2022/07/12 06:51:33;;;;;;;5.20;4.80;;;;;;;;;;5015976;28;20561;-64
2022/07/12 06:53:59;;;;;;;5.33;5.03;;;;;;;;;;5016004;28;20405;-64
2022/07/12 06:56:25;;;;;;;5.07;4.87;;;;;;;;;;5016051;28;20392;-64
2022/07/12 06:58:51;;;;;;;4.80;4.60;;;;;;;;;;5016058;28;20416;-64
2022/07/12 07:01:17;;;;;;;4.40;4.20;;;;;;;;;;5015875;28;20984;-64
2022/07/12 07:03:43;;;;;;;4.40;4.13;;;;;;;;;;5015962;28;20558;-64
2022/07/12 07:06:09;;;;;;;4.83;4.53;;;;;;;;;;5016233;28;20431;-64
2022/07/12 07:08:35;;;;;;;3.97;3.67;;;;;;;;;;5015973;28;20409;-64
2022/07/12 07:11:01;;;;;;;4.93;4.40;;;;;;;;;;5015744;28;20916;-64
2022/07/12 07:13:27;;;;;;;4.13;4.03;;;;;;;;;;5015721;28;20421;-64
2022/07/12 07:15:53;;;;;;;4.20;4.00;;;;;;;;;;5015894;28;20408;-65
2022/07/12 07:18:19;;;;;;;4.60;4.50;;;;;;;;;;5015636;28;20482;-65
2022/07/12 07:20:45;;;;;;;4.27;4.07;;;;;;;;;;5015701;28;20456;-65
2022/07/12 07:23:14;;;;;;;3.77;3.63;;;;;;;;;;5015368;28;20435;-65
2022/07/12 07:25:39;;;;;;;4.23;4.03;;;;;;;;;;5015655;28;20776;-65
2022/07/12 07:28:05;;;;;;;4.93;3.53;;;;;;;;;;5015424;28;20428;-66
2022/07/12 07:33:16;;;;;;;3.90;3.23;;;;;;;;;;5015416;28;20404;-67
2022/07/12 07:35:43;;;;;;;8.90;3.60;;;;;;;;;;5015280;28;20771;-66
2022/07/12 07:38:10;;;;;;;3.73;3.53;;;;;;;;;;5015368;28;20398;-67
2022/07/12 07:40:36;;;;;;;3.90;3.20;;;;;;;;;;5015314;28;20407;-66
2022/07/12 07:43:02;;;;;;;5.17;3.80;;;;;;;;;;5015085;28;20882;-66
2022/07/12 07:45:28;;;;;;;3.90;3.70;;;;;;;;;;5015021;28;20409;-67
2022/07/12 07:47:54;;;;;;;4.70;3.53;;;;;;;;;;5014816;28;20862;-64
2022/07/12 07:50:20;;;;;;;4.00;3.43;;;;;;;;;;5014718;28;20470;-64
2022/07/12 07:52:48;;;;;;;3.80;3.60;;;;;;;;;;5014729;28;20402;-66
2022/07/12 07:55:15;;;;;;;3.20;3.10;;;;;;;;;;5014986;28;20434;-69
2022/07/12 07:57:41;;;;;;;5.57;3.30;;;;;;;;;;5015199;28;20464;-67
2022/07/12 08:00:07;;;;;;;2.70;2.70;;;;;;;;;;5014920;28;20416;-67
2022/07/12 08:02:33;;;;;;;3.97;3.43;;;;;;;;;;5014947;28;20948;-65
2022/07/12 08:04:59;;;;;;;3.60;3.50;;;;;;;;;;5014713;28;20565;-66
2022/07/12 08:07:25;;;;;;;5.87;3.50;;;;;;;;;;5014848;28;20402;-66
2022/07/12 08:09:51;;;;;;;3.30;3.03;;;;;;;;;;5014903;28;20419;-65
2022/07/12 08:12:19;;;;;;;2.80;2.70;;;;;;;;;;5014853;28;20450;-66
2022/07/12 08:14:45;;;;;;;6.87;3.30;;;;;;;;;;4996951;28;20422;-66
2022/07/12 08:17:11;;;;;;;3.43;3.33;;;;;;;;;;5014729;28;20877;-66
2022/07/12 08:19:37;;;;;;;3.43;3.33;;;;;;;;;;5014695;28;20416;-65
2022/07/12 08:22:03;;;;;;;3.40;3.30;;;;;;;;;;5014579;28;20410;-67
2022/07/12 08:24:29;;;;;;;3.63;3.33;;;;;;;;;;5014420;28;20458;-67
2022/07/12 08:26:55;;;;;;;3.97;3.13;;;;;;;;;;5014445;28;20411;-65
2022/07/12 08:29:21;;;;;;;3.27;3.07;;;;;;;;;;5014749;28;20406;-65
2022/07/12 08:31:47;;;;;;;3.20;3.00;;;;;;;;;;5014371;28;20478;-67
2022/07/12 08:34:13;;;;;;;3.13;3.03;;;;;;;;;;5013821;28;20407;-65
2022/07/12 08:36:48;;;;;;;3.20;3.00;;;;;;;;;;5014499;28;20439;-66
2022/07/12 08:39:14;;;;;;;2.93;2.93;;;;;;;;;;5014294;28;20468;-66
2022/07/12 08:41:40;;;;;;;2.80;2.70;;;;;;;;;;4996862;28;20420;-66
2022/07/12 08:44:06;;;;;;;5.60;2.77;;;;;;;;;;5014007;28;20420;-67
2022/07/12 08:46:33;;;;;;;2.60;2.60;;;;;;;;;;5014204;28;20404;-66
2022/07/12 08:49:06;;;;;;;9.07;2.30;;;;;;;;;;5014078;28;20411;-67
2022/07/12 08:51:32;;;;;;;3.17;3.07;;;;;;;;;;5014219;28;20476;-67
2022/07/12 08:54:08;;;;;;;2.60;2.60;;;;;;;;;;5013925;28;20406;-65
2022/07/12 08:56:35;;;;;;;2.70;2.70;;;;;;;;;;5013959;28;20457;-66
2022/07/12 08:59:15;;;;;;;3.20;2.90;;;;;;;;;;5013880;28;20493;-66
2022/07/12 09:01:47;;;;;;;5.60;2.80;;;;;;;;;;5013851;28;20428;-66
2022/07/12 09:04:33;;;;;;;2.67;2.57;;;;;;;;;;5013753;28;20474;-66
2022/07/12 09:07:13;;;;;;;2.37;2.27;;;;;;;;;;5013813;28;20903;-65
2022/07/12 09:09:39;;;;;;;3.60;2.47;;;;;;;;;;5013693;28;20457;-66
2022/07/12 09:12:05;;;;;;;2.60;2.60;;;;;;;;;;5013679;28;20476;-65
2022/07/12 09:14:31;;;;;;;3.73;2.47;;;;;;;;;;5013759;28;20416;-65
2022/07/12 09:17:01;;;;;;;2.40;2.30;;;;;;;;;;5013751;28;20416;-67
2022/07/12 09:19:27;;;;;;;3.30;2.37;;;;;;;;;;5013684;28;20405;-67
2022/07/12 09:21:54;;;;;;;2.13;2.03;;;;;;;;;;5013665;28;20409;-67
2022/07/12 09:24:29;;;;;;;2.93;2.67;;;;;;;;;;5013831;28;20410;-68
2022/07/12 09:27:04;;;;;;;2.10;2.00;;;;;;;;;;5013575;28;20448;-67
2022/07/12 09:29:31;;;;;;;3.93;2.47;;;;;;;;;;4995990;28;20472;-67
2022/07/12 09:37:44;;;;;;;2.70;2.40;;;;;;;;;;5010494;28;20521;-67
2022/07/12 09:40:10;;;;;;;2.33;2.13;;;;;;;;;;5013563;28;20395;-66
2022/07/12 09:42:37;;;;;;;3.57;3.20;;;;;;;;;;5013376;28;20421;-66
2022/07/12 09:45:03;;;;;;;2.23;2.13;;;;;;;;;;5013486;28;20396;-68
2022/07/12 09:47:30;;;;;;;2.40;2.40;;;;;;;;;;5017036;28;20410;-68
2022/07/12 09:49:56;;;;;;;2.33;2.33;;;;;;;;;;5017344;28;20809;-67
2022/07/12 09:52:23;;;;;;;2.30;2.20;;;;;;;;;;5017372;28;20407;-67
2022/07/12 09:54:53;;;;;;;2.60;2.50;;;;;;;;;;5017288;28;20439;-69
2022/07/12 09:57:30;;;;;;;2.20;2.20;;;;;;;;;;5017205;28;20452;-65
2022/07/12 09:59:57;;;;;;;2.60;2.57;;;;;;;;;;5017225;28;20403;-66
2022/07/12 10:02:23;;;;;;;2.77;2.67;;;;;;;;;;5017161;28;20427;-66
2022/07/12 10:04:50;;;;;;;2.97;2.77;;;;;;;;;;5017040;28;20466;-66
2022/07/12 10:07:16;;;;;;;2.27;2.27;;;;;;;;;;5017104;28;20511;-66
2022/07/12 10:09:44;;;;;;;2.30;2.10;;;;;;;;;;5016882;28;20404;-66
2022/07/12 10:12:11;;;;;;;2.37;2.17;;;;;;;;;;5016896;28;20486;-66
2022/07/12 10:14:38;;;;;;;2.63;2.53;;;;;;;;;;5016905;28;20415;-66
2022/07/12 10:17:09;;;;;;;2.87;2.77;;;;;;;;;;5016870;28;20410;-67
2022/07/12 10:19:35;;;;;;;2.90;2.60;;;;;;;;;;5016829;28;20477;-66
2022/07/12 10:22:02;;;;;;;2.83;2.70;;;;;;;;;;5016807;28;20868;-66
2022/07/12 10:24:31;;;;;;;2.20;2.10;;;;;;;;;;5016699;28;20785;-67
2022/07/12 10:26:58;;;;;;;2.70;2.70;;;;;;;;;;5016762;28;20412;-67
2022/07/12 10:29:25;;;;;;;3.80;2.50;;;;;;;;;;5016600;28;20414;-67
2022/07/12 10:31:51;;;;;;;2.60;2.50;;;;;;;;;;5016785;28;20472;-68
2022/07/12 10:34:22;;;;;;;4.13;2.50;;;;;;;;;;5016597;28;20412;-67
2022/07/12 10:36:57;;;;;;;3.60;2.30;;;;;;;;;;5016490;28;20407;-67
2022/07/12 10:39:24;;;;;;;2.83;2.67;;;;;;;;;;5016489;28;20542;-68
2022/07/12 10:42:05;;;;;;;2.20;2.10;;;;;;;;;;5016366;28;20423;-68
2022/07/12 10:44:34;;;;;;;2.10;2.00;;;;;;;;;;5016328;28;20408;-68
2022/07/12 10:47:01;;;;;;;2.60;2.40;;;;;;;;;;5016386;28;20429;-68
2022/07/12 10:49:28;;;;;;;3.83;2.20;;;;;;;;;;5016189;28;20466;-69
2022/07/12 10:52:09;;;;;;;2.13;2.13;;;;;;;;;;5016088;28;20471;-68
2022/07/12 10:54:35;;;;;;;2.20;2.10;;;;;;;;;;5016060;28;21000;-69
2022/07/12 10:57:01;;;;;;;2.73;2.53;;;;;;;;;;5015707;28;20425;-69
2022/07/12 10:59:27;;;;;;;4.50;2.60;;;;;;;;;;5015644;28;20528;-69
2022/07/12 11:01:55;;;;;;;2.43;2.30;;;;;;;;;;5015905;28;20780;-68
2022/07/12 11:04:21;;;;;;;2.00;2.00;;;;;;;;;;4998292;28;20465;-69
2022/07/12 11:06:47;;;;;;;2.53;2.43;;;;;;;;;;5015750;28;20409;-68
2022/07/12 11:09:17;;;;;;;2.60;2.40;;;;;;;;;;5015737;28;20451;-68
2022/07/12 11:11:48;;;;;;;2.33;2.13;;;;;;;;;;5015802;28;20469;-68
2022/07/12 11:14:21;;;;;;;2.53;2.43;;;;;;;;;;5015795;28;20428;-68
2022/07/12 11:16:48;;;;;;;2.30;2.20;;;;;;;;;;5015765;28;20386;-67
2022/07/12 11:19:14;;;;;;;4.00;2.03;;;;;;;;;;5015892;28;20464;-68
2022/07/12 11:21:43;;;;;;;2.03;2.03;;;;;;;;;;5015624;28;20801;-69
2022/07/12 11:24:16;;;;;;;1.70;1.70;;;;;;;;;;5015847;28;20449;-69
2022/07/12 11:26:42;;;;;;;2.30;2.20;;;;;;;;;;5015553;28;20488;-69
2022/07/12 11:29:09;;;;;;;2.03;1.93;;;;;;;;;;5015508;28;20836;-68
2022/07/12 11:31:35;;;;;;;1.93;1.93;;;;;;;;;;4997337;28;20484;-67
2022/07/12 11:34:01;;;;;;;1.97;1.87;;;;;;;;;;5015385;28;20743;-68
2022/07/12 11:36:28;;;;;;;2.20;2.07;;;;;;;;;;5015279;28;20478;-69
2022/07/12 11:38:54;;;;;;;2.10;2.10;;;;;;;;;;5015356;28;20397;-69
2022/07/12 11:41:22;;;;;;;1.90;1.80;;;;;;;;;;5015557;28;20405;-71
2022/07/12 11:43:48;;;;;;;1.70;1.70;;;;;;;;;;5015265;28;20405;-69
2022/07/12 11:46:15;;;;;;;2.50;2.40;;;;;;;;;;5015191;28;20417;-68
2022/07/12 11:48:42;;;;;;;2.40;2.30;;;;;;;;;;5015325;28;20416;-69
2022/07/12 11:51:10;;;;;;;2.70;2.10;;;;;;;;;;5015061;28;20456;-68
2022/07/12 11:53:36;;;;;;;2.57;1.90;;;;;;;;;;5015063;28;20486;-70
2022/07/12 11:56:04;;;;;;;2.00;2.00;;;;;;;;;;5015064;28;20512;-68
2022/07/12 11:58:32;;;;;;;3.07;1.90;;;;;;;;;;5014958;28;20429;-69
2022/07/12 12:00:58;;;;;;;2.60;1.90;;;;;;;;;;5015005;28;20400;-68
2022/07/12 12:03:24;;;;;;;1.87;1.87;;;;;;;;;;5014725;28;20970;-69
2022/07/12 12:05:52;;;;;;;2.30;2.20;;;;;;;;;;5015042;28;20797;-70
2022/07/12 12:08:18;;;;;;;2.57;2.47;;;;;;;;;;5014930;28;20413;-68
2022/07/12 12:10:54;;;;;;;1.97;1.97;;;;;;;;;;5013724;28;20472;-67
2022/07/12 12:13:20;;;;;;;2.30;2.30;;;;;;;;;;5014625;28;20412;-68
2022/07/12 12:15:51;;;;;;;2.20;2.10;;;;;;;;;;5014581;28;20896;-68
2022/07/12 12:18:17;;;;;;;2.00;2.00;;;;;;;;;;5014458;28;20887;-70
2022/07/12 12:20:43;;;;;;;2.80;2.00;;;;;;;;;;5014599;28;20827;-68
2022/07/12 12:23:19;;;;;;;2.23;2.00;;;;;;;;;;5014549;28;20432;-69
2022/07/12 12:25:45;;;;;;;1.93;1.90;;;;;;;;;;5014486;28;20413;-68
2022/07/12 12:28:12;;;;;;;1.80;1.80;;;;;;;;;;5014476;28;20432;-68
2022/07/12 12:30:49;;;;;;;2.20;2.07;;;;;;;;;;5014288;28;20452;-69
2022/07/12 12:33:33;;;;;;;2.00;1.97;;;;;;;;;;5014337;28;20946;-68
2022/07/12 12:36:11;;;;;;;1.70;1.60;;;;;;;;;;5014383;28;20389;-65
2022/07/12 12:38:37;;;;;;;2.97;2.00;;;;;;;;;;5014174;28;20428;-69
2022/07/12 12:41:03;;;;;;;2.73;1.77;;;;;;;;;;5014235;28;20405;-66
2022/07/12 12:43:29;;;;;;;1.93;1.93;;;;;;;;;;5014164;28;20432;-66
2022/07/12 12:45:56;;;;;;;3.23;1.67;;;;;;;;;;4996510;28;20476;-66
2022/07/12 12:48:26;;;;;;;1.90;1.90;;;;;;;;;;5014171;28;20762;-66
2022/07/12 12:51:02;;;;;;;1.87;1.77;;;;;;;;;;5014022;28;20555;-66
2022/07/12 12:53:28;;;;;;;1.93;1.63;;;;;;;;;;5013940;28;20413;-67
2022/07/12 12:55:55;;;;;;;1.70;1.70;;;;;;;;;;5014048;28;20412;-67
2022/07/12 12:58:23;;;;;;;1.80;1.80;;;;;;;;;;5013807;28;20409;-66
2022/07/12 13:00:50;;;;;;;2.80;1.80;;;;;;;;;;5013991;28;20405;-68
2022/07/12 13:03:17;;;;;;;1.77;1.77;;;;;;;;;;5013720;28;20416;-67
2022/07/12 13:05:43;;;;;;;1.80;1.80;;;;;;;;;;5013877;28;20409;-67
2022/07/12 13:08:11;;;;;;;1.40;1.40;;;;;;;;;;4996179;28;20558;-67
2022/07/12 13:10:38;;;;;;;1.27;1.27;;;;;;;;;;5013700;28;20530;-67
2022/07/12 13:13:04;;;;;;;1.60;1.60;;;;;;;;;;4996060;28;20983;-67
2022/07/12 13:15:31;;;;;;;1.93;1.53;;;;;;;;;;5013806;28;20509;-67
2022/07/12 13:17:57;;;;;;;2.37;1.60;;;;;;;;;;5013727;28;20413;-68
2022/07/12 13:20:24;;;;;;;3.60;1.40;;;;;;;;;;5013283;28;20417;-68
2022/07/12 13:22:50;;;;;;;2.03;1.80;;;;;;;;;;5013690;28;20778;-68
2022/07/12 13:25:16;;;;;;;1.67;1.67;;;;;;;;;;5013766;28;20409;-68
2022/07/12 13:27:43;;;;;;;2.23;1.50;;;;;;;;;;5013586;28;20435;-68
2022/07/12 13:30:10;;;;;;;1.60;1.60;;;;;;;;;;5013877;28;20415;-68
2022/07/12 13:32:37;;;;;;;6.27;1.70;;;;;;;;;;5013583;28;20440;-67
2022/07/12 13:35:03;;;;;;;1.60;1.50;;;;;;;;;;5013591;28;20397;-67
2022/07/12 13:37:29;;;;;;;1.70;1.70;;;;;;;;;;5013520;28;20497;-68
2022/07/12 13:40:10;;;;;;;7.10;1.80;;;;;;;;;;5013469;28;20405;-68
2022/07/12 13:42:37;;;;;;;1.57;1.57;;;;;;;;;;5013404;28;20516;-68
2022/07/12 13:45:03;;;;;;;1.60;1.57;;;;;;;;;;5013451;28;20508;-68
2022/07/12 13:47:29;;;;;;;1.73;1.57;;;;;;;;;;5013450;28;20530;-67
2022/07/12 13:49:55;;;;;;;1.57;1.57;;;;;;;;;;4995788;28;20523;-68
2022/07/12 13:52:21;;;;;;;4.77;1.70;;;;;;;;;;5013329;28;20614;-68
2022/07/12 13:54:47;;;;;;;2.10;1.90;;;;;;;;;;5013460;28;20170;-68
2022/07/12 13:57:13;;;;;;;2.30;1.30;;;;;;;;;;5013314;28;20413;-70
2022/07/12 13:59:39;;;;;;;1.73;1.73;;;;;;;;;;5013340;28;20471;-68
2022/07/12 14:02:06;;;;;;;2.30;1.50;;;;;;;;;;5013124;28;20437;-68
2022/07/12 14:04:32;;;;;;;1.40;1.20;;;;;;;;;;5013225;28;20475;-67
2022/07/12 14:06:58;;;;;;;2.90;1.30;;;;;;;;;;4995696;28;20920;-68
2022/07/12 14:09:24;;;;;;;3.33;1.70;;;;;;;;;;4995602;28;20456;-68
2022/07/12 14:11:50;;;;;;;1.30;1.30;;;;;;;;;;5013196;28;20597;-68
2022/07/12 14:14:17;;;;;;;1.40;1.30;;;;;;;;;;5013150;28;20441;-67
2022/07/12 14:16:43;;;;;;;1.60;1.50;;;;;;;;;;5013097;28;20409;-68
2022/07/12 14:19:09;;;;;;;1.40;1.40;;;;;;;;;;5013119;28;20448;-68
2022/07/12 14:21:34;;;;;;;1.47;1.47;;;;;;;;;;5013126;28;20413;-67
2022/07/12 14:24:01;;;;;;;4.97;1.77;;;;;;;;;;5013112;28;20444;-68
2022/07/12 14:26:28;;;;;;;3.60;1.40;;;;;;;;;;5013119;28;20463;-69
2022/07/12 14:28:54;;;;;;;1.33;1.27;;;;;;;;;;5012982;28;20413;-69
2022/07/12 14:31:20;;;;;;;1.47;1.37;;;;;;;;;;5013233;28;20468;-69
2022/07/12 14:33:46;;;;;;;3.60;1.37;;;;;;;;;;5015160;28;20416;-67
2022/07/12 14:36:12;;;;;;;2.10;1.50;;;;;;;;;;5016569;28;20413;-68
2022/07/12 14:38:38;;;;;;;10.67;1.63;;;;;;;;;;5016470;28;20446;-67
2022/07/12 14:41:04;;;;;;;2.10;1.43;;;;;;;;;;5016520;28;20884;-67
2022/07/12 14:43:30;;;;;;;2.33;1.50;;;;;;;;;;5016398;28;20457;-67
2022/07/12 14:45:56;;;;;;;2.67;1.60;;;;;;;;;;5016457;28;20409;-67
2022/07/12 14:48:22;;;;;;;1.47;1.37;;;;;;;;;;5016273;28;20424;-67
2022/07/12 14:50:48;;;;;;;1.87;1.50;;;;;;;;;;5016057;28;20822;-68
2022/07/12 14:53:14;;;;;;;1.70;1.60;;;;;;;;;;5016251;28;20178;-68
2022/07/12 14:55:40;;;;;;;1.83;1.50;;;;;;;;;;5016235;28;20861;-68
2022/07/12 14:58:08;;;;;;;5.93;1.40;;;;;;;;;;5016072;28;20478;-67